Koninklijk Nederlands Meteorologisch Instituut; Ministerie van Verkeer en Waterstaat

 
Weer
Nederlandse vliegveldverwachtingen (TAF)
ZCZC
FT010500 EHEH AAA EINDHOVEN/EINDHOVEN   NLD   22 m.
TAF AMD EHEH 010705Z 0107/0212 23008KT 9999 SCT008 BKN012
    PROB30 TEMPO 0107/0109 2000 BR -RASN SCT003 BKN004
    BECMG 0113/0115 30005KT
    BECMG 0115/0117 9999 NSW SCT020
    BECMG 0121/0123 2500 BR
    PROB40 TEMPO 0123/0212 4000 SHRASN SCT006 SCT012CB BKN015
    BECMG 0208/0210 9999 NSW=

ZCZC
FC010900 EHWO     WOENSDRECHT/WOENSDRECHT   NLD   19 m.
TAF EHWO 010900Z NIL=

ZCZC
FC010900 EHVK     VOLKEL/VOLKEL   NLD   21 m.
TAF EHVK 010900Z NIL=

ZCZC
FC010900 EHLW     LEEUWARDEN/LEEUWARDEN   NLD   1 m.
TAF EHLW 010904Z 0110/0122 VRB03KT 0200 FG VV000
    BECMG 0110/0112 2000 BR SCT002 BKN004
    BECMG 0112/0114 32012KT 9999 NSW SCT020
    PROB30 TEMPO 0113/0122 3000 -SHRASN SCT008 SCT015CB
    BKN020=

ZCZC
FC010900 EHGR     GILZE-RIJEN/GILZE-RIJEN   NLD   14 m.
TAF EHGR 010900Z NIL=

ZCZC
FC011000 EHKD     DE KOOY/DE KOOY   NLD   1 m.
TAF EHKD 010900Z 0110/0122 VRB04KT 9999 FEW020 SCT035
    BECMG 0110/0112 01011KT
    TEMPO 0110/0115 4000 -SHRA SCT010 SCT015CB BKN020
    TEMPO 0112/0122 01011G21KT
    PROB30 TEMPO 0115/0122 3000 -SHRASN SCT008 SCT015CB
    BKN020=

ZCZC
FT011100 EHAM     AMSTERDAM/SCHIPHOL   NLD   -3 m.
TAF EHAM 011117Z 0112/0218 36005KT 9999 SCT012
    TEMPO 0112/0118 7000 -SHRA SCT008 SCT020CB
    BECMG 0112/0115 35012KT
    TEMPO 0118/0218 4500 -SHRASN BKN010 SCT018CB
    BECMG 0118/0121 33007KT
    PROB40 TEMPO 0200/0212 33015G25KT 2500 SHSNRA BKN006
    BKN015CB
    BECMG 0203/0206 28011KT
    BECMG 0206/0209 32012KT=

ZCZC
FT011100 EHGG     GRONINGEN/EELDE   NLD   5 m.
TAF EHGG 011122Z 0112/0218 VRB03KT 1200 BR BKN002
    BECMG 0112/0114 32007KT 9999 NSW SCT020
    PROB40 TEMPO 0202/0215 2000 SHSNRAGS BKN012 SCT020CB
    BECMG 0209/0212 30010KT=

ZCZC
FT011100 EHRD     ROTTERDAM/THE HAGUE AIRPORT   NLD   -5 m.
TAF EHRD 011118Z 0112/0218 36005KT 9999 SCT012
    TEMPO 0112/0118 7000 -SHRA SCT008 SCT020CB
    BECMG 0112/0115 35012KT
    TEMPO 0118/0218 4500 -SHRASN BKN010 SCT018CB
    BECMG 0118/0121 33007KT
    PROB40 TEMPO 0200/0212 33015G25KT 2500 SHSNRA BKN006
    BKN015CB
    BECMG 0203/0206 28011KT
    BECMG 0206/0209 32012KT=

ZCZC
FT011100 EHBK     MAASTRICHT/MAASTRICHT-AACHEN   NLD   114 m.
TAF EHBK 011122Z 0112/0218 23010KT 9999 BKN008
    PROB40 TEMPO 0113/0117 4000 -RADZ
    BECMG 0117/0120 VRB03KT SCT025
    BECMG 0120/0123 25007KT 2500 BR BKN003
    PROB40 TEMPO 0203/0209 1000 SN -SHSN BKN002 SCT020CB
    PROB40 TEMPO 0209/0218 4000 RASN SNRA
    BECMG 0213/0216 9999 NSW SCT015=